Time;durP1;ratioP1;P1;durP2;ratioP2;P2;SDS_P1;SDS_P2;PMS_P1;PMS_P2;Temp;Humidity;BMP_temperature;BMP_pressure;BME280_temperature;BME280_humidity;BME280_pressure;Samples;Min_cycle;Max_cycle;Signal;HPM_P1;HPM_P2
2021/04/11 00:00:32;;;;;;;29.50;13.70;;;4.80;94.00;;;;;;4156026;28;20290;-63
2021/04/11 00:02:34;;;;;;;26.47;14.13;;;4.80;94.20;;;;;;4156684;28;20357;-62
2021/04/11 00:04:35;;;;;;;29.73;13.80;;;4.80;94.40;;;;;;4158395;28;20328;-62
2021/04/11 00:06:36;;;;;;;29.87;14.93;;;4.80;94.60;;;;;;4160172;28;20352;-61
2021/04/11 00:08:37;;;;;;;26.90;14.17;;;4.70;94.70;;;;;;4158643;28;20279;-62
2021/04/11 00:10:41;;;;;;;28.00;13.37;;;4.70;95.00;;;;;;4160140;28;20274;-64
2021/04/11 00:12:42;;;;;;;26.73;13.53;;;4.60;95.30;;;;;;4158255;28;20270;-62
2021/04/11 00:14:43;;;;;;;26.27;12.60;;;4.60;95.50;;;;;;4160345;28;20274;-62
2021/04/11 00:16:44;;;;;;;24.53;12.33;;;4.60;95.70;;;;;;4158530;28;20267;-63
2021/04/11 00:18:46;;;;;;;19.87;9.73;;;4.50;95.80;;;;;;4159241;28;20275;-61
2021/04/11 00:20:47;;;;;;;23.67;11.57;;;4.50;96.00;;;;;;4158898;28;20352;-63
2021/04/11 00:22:48;;;;;;;28.27;13.47;;;4.50;96.20;;;;;;4158660;28;20380;-60
2021/04/11 00:24:50;;;;;;;32.17;13.53;;;4.40;96.40;;;;;;4158634;28;20267;-66
2021/04/11 00:26:51;;;;;;;32.80;14.70;;;4.40;96.90;;;;;;4159466;28;20270;-64
2021/04/11 00:28:52;;;;;;;31.93;15.00;;;4.30;97.20;;;;;;4158735;28;20267;-64
2021/04/11 00:30:53;;;;;;;28.30;13.67;;;4.10;97.60;;;;;;4159269;28;20314;-65
2021/04/11 00:32:57;;;;;;;30.93;14.40;;;4.00;98.40;;;;;;4159638;28;20275;-61
2021/04/11 00:34:58;;;;;;;32.00;13.67;;;4.00;98.70;;;;;;4158744;28;20266;-62
2021/04/11 00:37:00;;;;;;;29.57;14.43;;;3.90;99.40;;;;;;4160017;28;20328;-60
2021/04/11 00:39:01;;;;;;;26.27;14.17;;;3.80;99.60;;;;;;4158272;28;20258;-61
2021/04/11 00:41:21;;;;;;;33.60;14.83;;;3.70;99.60;;;;;;4159861;28;20277;-61
2021/04/11 00:43:23;;;;;;;27.58;13.65;;;3.70;99.90;;;;;;4158841;28;20348;-60
2021/04/11 00:45:52;;;;;;;27.33;14.43;;;3.70;99.90;;;;;;4159416;28;20025;-65
2021/04/11 00:47:54;;;;;;;25.80;13.40;;;3.70;99.90;;;;;;4138397;28;20353;-62
2021/04/11 00:49:55;;;;;;;23.47;12.73;;;3.70;99.90;;;;;;4160240;28;21135;-61
2021/04/11 00:51:57;;;;;;;22.20;12.60;;;3.60;99.90;;;;;;4158456;28;20324;-61
2021/04/11 00:54:00;;;;;;;30.60;14.33;;;3.60;99.90;;;;;;4159311;28;20942;-62
2021/04/11 00:56:05;;;;;;;28.70;14.17;;;3.60;99.90;;;;;;4158255;28;20270;-67
2021/04/11 00:58:06;;;;;;;26.80;13.03;;;3.50;99.90;;;;;;4159589;28;20765;-62
2021/04/11 01:00:08;;;;;;;29.20;14.03;;;3.40;99.90;;;;;;4157514;28;20306;-66
2021/04/11 01:02:09;;;;;;;26.17;12.97;;;3.40;99.90;;;;;;4158287;28;20290;-63
2021/04/11 01:04:12;;;;;;;27.37;13.63;;;3.30;99.90;;;;;;4157932;28;20953;-62
2021/04/11 01:06:18;;;;;;;27.77;13.97;;;3.20;99.90;;;;;;4159398;28;20266;-63
2021/04/11 01:08:23;;;;;;;31.10;13.70;;;3.20;99.90;;;;;;4157967;28;20275;-66
2021/04/11 01:10:27;;;;;;;28.63;14.13;;;3.10;99.90;;;;;;4159197;28;20739;-62
2021/04/11 01:12:29;;;;;;;24.37;13.20;;;3.00;99.90;;;;;;4158065;28;20340;-61
2021/04/11 01:14:32;;;;;;;30.77;14.77;;;3.00;99.90;;;;;;4158906;28;20267;-61
2021/04/11 01:16:35;;;;;;;32.40;14.83;;;2.90;99.90;;;;;;4158099;28;20317;-62
2021/04/11 01:18:36;;;;;;;27.87;15.00;;;2.90;99.90;;;;;;4158170;28;20267;-61
2021/04/11 01:20:38;;;;;;;32.53;17.43;;;2.80;99.90;;;;;;4157706;28;20302;-62
2021/04/11 01:22:39;;;;;;;39.27;17.30;;;2.80;99.90;;;;;;4158284;28;20267;-63
2021/04/11 01:24:53;;;;;;;33.97;17.40;;;2.80;99.90;;;;;;4158674;28;20858;-66
2021/04/11 01:26:55;;;;;;;38.90;17.30;;;2.70;99.90;;;;;;4158164;28;21153;-67
2021/04/11 01:28:58;;;;;;;36.07;18.03;;;2.60;99.90;;;;;;4158446;28;20270;-68
2021/04/11 01:31:05;;;;;;;40.33;18.90;;;2.60;99.90;;;;;;4157149;28;20274;-67
2021/04/11 01:33:09;;;;;;;43.57;19.83;;;2.50;99.90;;;;;;4158532;28;20270;-67
2021/04/11 01:35:12;;;;;;;40.97;19.50;;;2.50;99.90;;;;;;4157314;28;20320;-65
2021/04/11 01:37:16;;;;;;;38.10;17.77;;;2.40;99.90;;;;;;4157677;28;20717;-67
2021/04/11 01:39:35;;;;;;;41.60;17.67;;;2.30;99.90;;;;;;4157259;28;20911;-66
2021/04/11 01:41:40;;;;;;;42.03;18.37;;;2.20;99.90;;;;;;4158881;28;20263;-61
2021/04/11 01:43:42;;;;;;;36.03;17.10;;;2.10;99.90;;;;;;4157391;28;20317;-66
2021/04/11 01:45:44;;;;;;;41.03;18.63;;;2.00;99.90;;;;;;4158950;28;20616;-61
2021/04/11 01:47:45;;;;;;;38.83;18.03;;;2.00;99.90;;;;;;4157167;28;20333;-65
2021/04/11 01:49:47;;;;;;;38.73;16.07;;;2.00;99.90;;;;;;4158595;28;20690;-64
2021/04/11 01:51:55;;;;;;;35.70;16.77;;;2.00;99.90;;;;;;4157355;28;20252;-62
2021/04/11 01:53:57;;;;;;;35.10;18.20;;;1.90;99.90;;;;;;4158115;28;20312;-63
2021/04/11 01:55:59;;;;;;;39.27;17.40;;;1.90;99.90;;;;;;4157042;28;20282;-58
2021/04/11 01:58:02;;;;;;;33.70;17.33;;;1.80;99.90;;;;;;4158660;28;20722;-62
2021/04/11 02:00:33;;;;;;;39.47;17.60;;;1.80;99.90;;;;;;4157128;28;20294;-61
2021/04/11 02:02:34;;;;;;;36.00;17.20;;;1.70;99.90;;;;;;4156906;28;20381;-60
2021/04/11 02:04:35;;;;;;;40.37;17.90;;;1.70;99.90;;;;;;4157176;28;20084;-63
2021/04/11 02:06:44;;;;;;;32.83;17.30;;;1.70;99.90;;;;;;4158786;28;20658;-62
2021/04/11 02:08:48;;;;;;;51.37;18.33;;;1.70;99.90;;;;;;4156737;28;20753;-66
2021/04/11 02:10:53;;;;;;;34.03;16.17;;;1.80;99.90;;;;;;4158099;28;20285;-62
2021/04/11 02:12:55;;;;;;;39.90;18.10;;;1.80;99.90;;;;;;4157226;28;20735;-65
2021/04/11 02:14:57;;;;;;;37.50;18.87;;;1.80;99.90;;;;;;4156387;28;20291;-66
2021/04/11 02:16:58;;;;;;;38.83;18.83;;;1.90;99.90;;;;;;4156871;28;20247;-67
2021/04/11 02:19:07;;;;;;;39.83;18.27;;;1.90;99.90;;;;;;4157734;28;20848;-65
2021/04/11 02:21:20;;;;;;;42.63;19.67;;;1.90;99.90;;;;;;4158067;28;20283;-67
2021/04/11 02:23:23;;;;;;;36.90;19.23;;;1.90;99.90;;;;;;4157435;28;20259;-66
2021/04/11 02:25:29;;;;;;;41.67;18.90;;;2.00;99.90;;;;;;4157117;28;20677;-62
2021/04/11 02:27:30;;;;;;;36.97;19.33;;;2.00;99.90;;;;;;4157130;28;20727;-61
2021/04/11 02:29:32;;;;;;;45.73;18.53;;;2.00;99.90;;;;;;4156174;28;20278;-66
2021/04/11 02:31:33;;;;;;;39.10;17.83;;;2.00;99.90;;;;;;4156576;28;20324;-64
2021/04/11 02:33:34;;;;;;;38.53;17.90;;;2.00;99.90;;;;;;4158111;28;20747;-65
2021/04/11 02:35:35;;;;;;;37.13;18.50;;;2.10;99.90;;;;;;4156378;28;20263;-64
2021/04/11 02:37:38;;;;;;;40.80;17.30;;;2.10;99.90;;;;;;4158087;28;20270;-64
2021/04/11 02:39:41;;;;;;;39.47;18.43;;;2.10;99.90;;;;;;4156344;28;20821;-62
2021/04/11 02:41:43;;;;;;;41.97;17.10;;;2.00;99.90;;;;;;4157832;28;20364;-62
2021/04/11 02:43:45;;;;;;;37.47;18.87;;;2.00;99.90;;;;;;4156499;28;20946;-61
2021/04/11 02:45:47;;;;;;;45.60;19.40;;;2.00;99.90;;;;;;4158179;28;20258;-67
2021/04/11 02:47:48;;;;;;;38.63;18.60;;;2.00;99.90;;;;;;4156663;28;20291;-62
2021/04/11 02:49:52;;;;;;;39.27;19.50;;;1.90;99.90;;;;;;4158148;28;20283;-62
2021/04/11 02:51:54;;;;;;;38.53;19.00;;;1.90;99.90;;;;;;4156746;28;20278;-60
2021/04/11 02:53:58;;;;;;;37.50;19.50;;;1.90;99.90;;;;;;4157467;28;20331;-63
2021/04/11 02:56:01;;;;;;;42.47;20.40;;;2.00;99.90;;;;;;4156852;28;20650;-67
2021/04/11 02:58:03;;;;;;;44.97;20.77;;;2.00;99.90;;;;;;4156861;28;20271;-68
2021/04/11 03:00:13;;;;;;;41.47;18.27;;;2.00;99.90;;;;;;4157183;28;20282;-67
2021/04/11 03:02:15;;;;;;;40.08;18.77;;;2.00;99.90;;;;;;4157041;28;20329;-66
2021/04/11 03:04:20;;;;;;;40.40;20.10;;;2.00;99.90;;;;;;4156925;28;20037;-67
2021/04/11 03:06:25;;;;;;;43.93;20.63;;;1.90;99.90;;;;;;4156662;28;20340;-67
2021/04/11 03:08:30;;;;;;;44.63;19.10;;;1.90;99.90;;;;;;4157063;28;20266;-64
2021/04/11 03:10:47;;;;;;;34.60;18.83;;;1.90;99.90;;;;;;4156351;28;20628;-66
2021/04/11 03:12:51;;;;;;;40.07;18.13;;;1.90;99.90;;;;;;4156994;28;20290;-66
2021/04/11 03:14:53;;;;;;;37.20;17.80;;;1.90;99.90;;;;;;4156080;28;20263;-62
2021/04/11 03:16:55;;;;;;;36.60;18.27;;;1.90;99.90;;;;;;4157100;28;20669;-65
2021/04/11 03:18:58;;;;;;;41.70;19.17;;;1.90;99.90;;;;;;4156162;28;20279;-62
2021/04/11 03:20:59;;;;;;;34.60;16.93;;;2.00;99.90;;;;;;4157730;28;20324;-62
2021/04/11 03:23:06;;;;;;;34.70;15.73;;;2.00;99.90;;;;;;4155962;28;20278;-64
2021/04/11 03:25:09;;;;;;;32.20;14.53;;;2.00;99.90;;;;;;4157490;28;20340;-63
2021/04/11 03:27:17;;;;;;;32.77;14.67;;;2.00;99.90;;;;;;4156073;28;20694;-63
2021/04/11 03:29:28;;;;;;;33.43;14.87;;;2.00;99.90;;;;;;4157140;28;20282;-62
2021/04/11 03:31:38;;;;;;;20.77;12.47;;;2.10;99.90;;;;;;4156504;28;20752;-62
2021/04/11 03:33:43;;;;;;;28.27;13.33;;;2.00;99.90;;;;;;4157360;28;20750;-62
2021/04/11 03:35:47;;;;;;;29.53;13.63;;;2.00;99.90;;;;;;4156065;28;20275;-66
2021/04/11 03:37:51;;;;;;;32.30;13.80;;;2.10;99.90;;;;;;4158800;28;20333;-63
2021/04/11 03:39:52;;;;;;;31.73;14.67;;;2.00;99.90;;;;;;4159074;28;20282;-63
2021/04/11 03:41:54;;;;;;;25.03;13.83;;;2.00;99.90;;;;;;4160768;28;20561;-63
2021/04/11 03:43:59;;;;;;;35.07;15.20;;;2.00;99.90;;;;;;4159014;28;21090;-68
2021/04/11 03:46:08;;;;;;;33.47;14.90;;;2.00;99.90;;;;;;4160312;28;20271;-66
2021/04/11 03:48:31;;;;;;;32.17;14.63;;;2.00;99.90;;;;;;4158851;28;20852;-67
2021/04/11 03:50:41;;;;;;;25.77;13.73;;;2.10;99.90;;;;;;4160803;28;20274;-67
2021/04/11 03:52:48;;;;;;;29.98;13.77;;;2.00;99.90;;;;;;4159029;28;20747;-66
2021/04/11 03:54:49;;;;;;;28.90;13.00;;;2.00;99.90;;;;;;4160469;28;20103;-67
2021/04/11 03:57:07;;;;;;;26.57;13.03;;;1.90;99.90;;;;;;4157365;28;20317;-67
2021/04/11 03:59:11;;;;;;;29.07;13.17;;;1.90;99.90;;;;;;4158967;28;20957;-67
2021/04/11 04:01:19;;;;;;;33.47;14.13;;;1.90;99.90;;;;;;4159036;28;20417;-67
2021/04/11 04:03:24;;;;;;;28.93;11.17;;;1.90;99.90;;;;;;4159586;28;20271;-65
2021/04/11 04:05:29;;;;;;;26.83;12.80;;;2.10;99.90;;;;;;4158969;28;20260;-64
2021/04/11 04:07:49;;;;;;;30.60;11.83;;;2.30;99.90;;;;;;4160068;28;20646;-67
2021/04/11 04:10:01;;;;;;;23.98;12.23;;;2.50;99.90;;;;;;4157516;28;20271;-66
2021/04/11 04:12:05;;;;;;;26.43;11.93;;;2.90;99.90;;;;;;4160186;28;20107;-64
2021/04/11 04:14:12;;;;;;;25.50;12.03;;;3.20;99.90;;;;;;4158598;28;20282;-63
2021/04/11 04:16:18;;;;;;;28.90;13.83;;;3.50;99.90;;;;;;4159978;28;20312;-67
2021/04/11 04:18:44;;;;;;;24.97;12.83;;;3.90;99.90;;;;;;4158335;28;20776;-66
2021/04/11 04:21:04;;;;;;;31.37;13.13;;;4.20;99.90;;;;;;4147811;28;20290;-67
2021/04/11 04:23:15;;;;;;;24.97;12.70;;;4.40;99.90;;;;;;4158885;28;20270;-66
2021/04/11 04:25:42;;;;;;;21.08;11.60;;;4.70;99.90;;;;;;4159597;28;20353;-64
2021/04/11 04:28:10;;;;;;;22.50;11.47;;;5.00;99.90;;;;;;4158607;28;20083;-62
2021/04/11 04:30:24;;;;;;;21.63;12.07;;;5.30;99.90;;;;;;4159557;28;20283;-67
2021/04/11 04:32:35;;;;;;;23.20;12.20;;;5.70;99.90;;;;;;4158450;28;20778;-68
2021/04/11 04:34:42;;;;;;;27.70;13.30;;;6.10;99.90;;;;;;4158453;28;20912;-65
2021/04/11 04:36:54;;;;;;;25.83;12.27;;;6.30;99.90;;;;;;4158487;28;20329;-67
2021/04/11 04:39:20;;;;;;;20.63;11.00;;;6.60;99.90;;;;;;4159674;28;20266;-67
2021/04/11 04:41:28;;;;;;;26.00;11.47;;;6.90;99.70;;;;;;4158441;28;20718;-64
2021/04/11 04:43:51;;;;;;;24.83;12.53;;;7.40;98.80;;;;;;4157769;28;20309;-62
2021/04/11 04:46:15;;;;;;;23.73;12.07;;;7.80;97.70;;;;;;4158511;28;21015;-61
2021/04/11 04:48:30;;;;;;;23.73;11.83;;;8.20;95.40;;;;;;4157938;28;20057;-66
2021/04/11 04:50:39;;;;;;;25.43;12.23;;;8.50;94.70;;;;;;4158332;28;20091;-61
2021/04/11 04:52:46;;;;;;;27.17;13.33;;;8.50;94.60;;;;;;4158695;28;20533;-61
2021/04/11 04:55:00;;;;;;;19.40;11.33;;;8.70;93.60;;;;;;4158472;28;20100;-64
2021/04/11 04:57:06;;;;;;;23.87;12.10;;;9.00;92.80;;;;;;4158441;28;20030;-63
2021/04/11 04:59:16;;;;;;;30.97;13.10;;;9.30;91.60;;;;;;4158963;28;20654;-64
2021/04/11 05:01:25;;;;;;;23.65;12.77;;;9.60;90.60;;;;;;4158435;28;20037;-62
2021/04/11 05:03:32;;;;;;;23.90;12.33;;;10.00;88.20;;;;;;4158397;28;20045;-67
2021/04/11 05:05:42;;;;;;;23.27;12.07;;;10.20;86.00;;;;;;4158524;28;20516;-64
2021/04/11 05:08:18;;;;;;;23.77;12.45;;;10.50;84.80;;;;;;4158796;28;20026;-63
2021/04/11 05:10:32;;;;;;;25.73;13.23;;;11.00;80.50;;;;;;4137414;28;20038;-64
2021/04/11 05:12:44;;;;;;;25.17;12.47;;;11.20;80.70;;;;;;4154749;28;20432;-63
2021/04/11 05:14:52;;;;;;;23.50;11.50;;;11.20;79.80;;;;;;4157770;28;20028;-62
2021/04/11 05:17:04;;;;;;;25.27;13.03;;;11.10;78.80;;;;;;4159197;28;20038;-63
2021/04/11 05:19:29;;;;;;;20.17;11.90;;;11.30;78.20;;;;;;4157146;28;20040;-65
2021/04/11 05:21:38;;;;;;;22.70;13.70;;;11.60;76.80;;;;;;4159534;28;20041;-63
2021/04/11 05:23:53;;;;;;;23.57;13.20;;;11.80;76.60;;;;;;4157385;28;20438;-63
2021/04/11 05:26:08;;;;;;;23.73;13.13;;;12.10;75.00;;;;;;4159302;28;20116;-62
2021/04/11 05:28:52;;;;;;;31.43;14.73;;;12.30;70.90;;;;;;4157030;28;20075;-66
2021/04/11 05:31:05;;;;;;;24.93;13.40;;;11.90;70.80;;;;;;4148317;28;20095;-63
2021/04/11 05:33:10;;;;;;;21.60;12.47;;;12.00;71.10;;;;;;4156106;28;20448;-64
2021/04/11 05:35:11;;;;;;;23.33;12.67;;;11.90;71.60;;;;;;4157747;28;20049;-62
2021/04/11 05:37:38;;;;;;;24.67;13.00;;;12.20;71.00;;;;;;4157574;28;20045;-63
2021/04/11 05:39:54;;;;;;;20.43;12.20;;;12.30;68.30;;;;;;4158382;28;20486;-63
2021/04/11 05:42:18;;;;;;;29.43;12.83;;;12.00;68.70;;;;;;4157353;28;20100;-64
2021/04/11 05:44:46;;;;;;;24.37;12.80;;;11.70;69.10;;;;;;4155195;28;20045;-66
2021/04/11 05:47:01;;;;;;;30.97;14.10;;;11.40;69.00;;;;;;4157682;28;20037;-62
2021/04/11 05:49:15;;;;;;;36.93;14.10;;;11.20;70.60;;;;;;4157350;28;20380;-62
2021/04/11 05:51:30;;;;;;;24.47;13.80;;;11.20;71.00;;;;;;4157927;28;20034;-62
2021/04/11 05:53:39;;;;;;;28.33;14.90;;;11.30;70.30;;;;;;4157308;28;20060;-63
2021/04/11 05:55:46;;;;;;;26.97;13.97;;;11.60;69.80;;;;;;4158010;28;20029;-61
2021/04/11 05:57:52;;;;;;;26.20;14.40;;;11.80;68.60;;;;;;4156830;28;20099;-61
2021/04/11 05:59:59;;;;;;;22.67;13.50;;;11.90;68.40;;;;;;4157485;28;20046;-63
2021/04/11 06:02:03;;;;;;;31.17;16.03;;;12.20;67.80;;;;;;4156027;28;20101;-65
2021/04/11 06:04:17;;;;;;;27.23;15.90;;;12.60;67.20;;;;;;4157402;28;20084;-67
2021/04/11 06:06:18;;;;;;;27.97;16.13;;;12.80;66.00;;;;;;4156917;28;20037;-62
2021/04/11 06:08:26;;;;;;;25.33;14.73;;;12.90;65.40;;;;;;4157587;28;20481;-69
2021/04/11 06:10:42;;;;;;;34.07;15.40;;;13.70;64.30;;;;;;4157244;28;20148;-63
2021/04/11 06:12:55;;;;;;;23.73;15.17;;;14.10;62.30;;;;;;4156982;28;20539;-68
2021/04/11 06:15:15;;;;;;;22.70;13.40;;;14.30;61.10;;;;;;4156940;28;20026;-70
2021/04/11 06:17:17;;;;;;;31.85;15.25;;;14.80;60.00;;;;;;4157594;28;20025;-64
2021/04/11 06:19:20;;;;;;;29.60;15.30;;;15.50;59.70;;;;;;4157071;28;20025;-63
2021/04/11 06:21:43;;;;;;;30.57;15.07;;;15.80;58.50;;;;;;4157982;28;20444;-66
2021/04/11 06:23:52;;;;;;;31.07;15.00;;;15.90;57.90;;;;;;4157007;28;20027;-65
2021/04/11 06:26:10;;;;;;;27.33;13.87;;;15.70;57.60;;;;;;4158064;28;20026;-65
2021/04/11 06:28:36;;;;;;;22.97;12.73;;;15.30;55.90;;;;;;4156530;28;20122;-61
2021/04/11 06:30:41;;;;;;;22.80;13.07;;;14.70;57.10;;;;;;4157403;28;20045;-63
2021/04/11 06:32:56;;;;;;;20.87;12.17;;;14.30;58.20;;;;;;4155092;28;20033;-58
2021/04/11 06:35:02;;;;;;;23.13;12.23;;;14.20;58.00;;;;;;4157379;28;20314;-61
2021/04/11 06:37:07;;;;;;;24.90;14.00;;;14.20;58.30;;;;;;4155880;28;20087;-61
2021/04/11 06:39:22;;;;;;;22.00;12.37;;;13.80;58.30;;;;;;4156670;28;20049;-62
2021/04/11 06:42:03;;;;;;;28.80;14.07;;;13.50;58.90;;;;;;4155699;28;20045;-60
2021/04/11 06:44:19;;;;;;;25.42;13.25;;;12.90;59.00;;;;;;4157648;28;20069;-65
2021/04/11 06:46:51;;;;;;;24.10;12.83;;;12.40;60.70;;;;;;4155984;28;20037;-62
2021/04/11 06:49:16;;;;;;;25.77;11.20;;;11.90;62.40;;;;;;4156902;28;20115;-63
2021/04/11 06:51:48;;;;;;;24.80;12.00;;;11.60;62.30;;;;;;4156486;28;20083;-60
2021/04/11 06:54:09;;;;;;;24.80;12.07;;;11.60;62.70;;;;;;4156410;28;20762;-60
2021/04/11 06:56:12;;;;;;;;;;;11.60;62.90;;;;;;4157765;28;20026;-65
2021/04/11 06:58:35;;;;;;;20.37;12.30;;;11.60;63.10;;;;;;4155841;28;19971;-61
2021/04/11 07:01:06;;;;;;;23.10;11.23;;;11.60;63.50;;;;;;4140791;28;20084;-64
2021/04/11 07:03:46;;;;;;;21.63;11.83;;;11.40;64.30;;;;;;4139601;28;20968;-61
2021/04/11 07:05:56;;;;;;;23.37;12.80;;;11.40;65.10;;;;;;4132796;28;20046;-61
2021/04/11 07:08:44;;;;;;;26.15;13.02;;;11.30;65.70;;;;;;4139448;28;20079;-61
2021/04/11 07:11:15;;;;;;;23.77;12.20;;;11.40;66.50;;;;;;4140459;28;20034;-61
2021/04/11 07:13:35;;;;;;;27.13;12.27;;;11.20;67.40;;;;;;4143041;28;20033;-63
2021/04/11 07:16:11;;;;;;;19.73;12.23;;;11.20;67.50;;;;;;4143053;28;20552;-64
2021/04/11 07:18:28;;;;;;;22.83;14.13;;;11.00;68.80;;;;;;4131916;28;20493;-63
2021/04/11 07:21:02;;;;;;;24.57;13.07;;;11.30;67.90;;;;;;4142708;28;20021;-63
2021/04/11 07:23:12;;;;;;;26.23;12.30;;;11.40;68.30;;;;;;4150316;28;20046;-64
2021/04/11 07:25:31;;;;;;;23.20;13.07;;;11.40;68.70;;;;;;4159390;28;20045;-64
2021/04/11 07:28:09;;;;;;;29.10;12.70;;;11.70;69.10;;;;;;4160945;28;20037;-57
2021/04/11 07:31:00;;;;;;;27.97;12.87;;;11.80;69.10;;;;;;4158097;28;20695;-63
2021/04/11 07:33:13;;;;;;;25.30;12.35;;;11.80;69.20;;;;;;4147016;28;20476;-64
2021/04/11 07:35:39;;;;;;;21.60;12.47;;;11.90;68.50;;;;;;4159665;28;20033;-61
2021/04/11 07:38:16;;;;;;;22.87;12.97;;;12.00;68.60;;;;;;4158336;28;20132;-62
2021/04/11 07:40:20;;;;;;;22.63;13.03;;;12.20;68.50;;;;;;4159455;28;20048;-61
2021/04/11 07:42:55;;;;;;;23.13;12.77;;;12.20;68.50;;;;;;4158681;28;20037;-61
2021/04/11 07:45:34;;;;;;;22.80;12.50;;;12.00;69.50;;;;;;4159494;28;20444;-62
2021/04/11 07:47:56;;;;;;;21.63;12.30;;;12.20;69.80;;;;;;4142905;28;20104;-61
2021/04/11 07:50:15;;;;;;;23.27;13.00;;;12.50;69.10;;;;;;4155847;28;20119;-61
2021/04/11 07:52:42;;;;;;;24.77;13.13;;;12.80;68.90;;;;;;4157934;28;20045;-62
2021/04/11 07:55:20;;;;;;;22.83;12.20;;;12.80;68.70;;;;;;4157921;28;20045;-62
2021/04/11 07:57:39;;;;;;;19.30;10.43;;;12.80;68.10;;;;;;4156494;28;20516;-61
2021/04/11 07:59:52;;;;;;;266.93;126.87;;;12.90;68.10;;;;;;4157767;28;20079;-65
2021/04/11 08:02:17;;;;;;;17.87;9.57;;;13.00;67.80;;;;;;4152001;28;20049;-62
2021/04/11 08:04:21;;;;;;;16.03;8.97;;;13.20;66.90;;;;;;4158562;28;20030;-63
2021/04/11 08:06:32;;;;;;;19.13;10.63;;;13.30;66.10;;;;;;4159648;28;20469;-67
2021/04/11 08:08:48;;;;;;;;;;;13.30;65.90;;;;;;4158407;28;20034;-61
2021/04/11 08:11:12;;;;;;;16.77;9.23;;;13.30;64.60;;;;;;4159082;28;20308;-63
2021/04/11 08:13:26;;;;;;;17.53;9.33;;;13.40;64.50;;;;;;4158162;28;21005;-64
2021/04/11 08:15:59;;;;;;;14.57;8.87;;;13.60;63.90;;;;;;4158490;28;20041;-63
2021/04/11 08:18:19;;;;;;;14.53;8.37;;;13.70;62.40;;;;;;4140863;28;20561;-65
2021/04/11 08:20:52;;;;;;;15.75;7.38;;;13.90;62.60;;;;;;4157996;28;20025;-62
2021/04/11 08:23:22;;;;;;;16.83;8.97;;;14.00;59.50;;;;;;4124516;28;20643;-61
2021/04/11 08:25:49;;;;;;;16.02;8.15;;;14.00;58.80;;;;;;4157701;28;20127;-61
2021/04/11 08:28:00;;;;;;;13.23;7.73;;;14.10;58.50;;;;;;4142244;28;20034;-66
2021/04/11 08:30:30;;;;;;;18.40;7.37;;;14.30;59.10;;;;;;4155840;28;20033;-65
2021/04/11 08:33:13;;;;;;;15.57;7.80;;;14.50;57.00;;;;;;4158758;28;20045;-68
2021/04/11 08:35:49;;;;;;;16.87;8.00;;;14.50;55.40;;;;;;4140453;28;20712;-68
2021/04/11 08:38:05;;;;;;;12.40;7.33;;;14.70;55.50;;;;;;4157731;28;20103;-71
2021/04/11 08:40:38;;;;;;;105.07;51.17;;;15.10;54.60;;;;;;4159203;28;20018;-69
2021/04/11 08:42:39;;;;;;;12.90;6.57;;;15.40;51.20;;;;;;4143926;28;20191;-63
2021/04/11 08:45:17;;;;;;;11.60;6.80;;;15.50;52.10;;;;;;4158193;28;20033;-61
2021/04/11 08:47:39;;;;;;;10.77;5.77;;;15.90;50.30;;;;;;4156773;28;20041;-63
2021/04/11 08:49:51;;;;;;;8.90;4.60;;;16.20;49.90;;;;;;4142594;28;20041;-66
2021/04/11 08:52:00;;;;;;;7.60;4.80;;;16.30;47.00;;;;;;4141536;28;20805;-61
2021/04/11 08:54:39;;;;;;;7.35;4.53;;;16.50;46.60;;;;;;4153992;28;20037;-60
2021/04/11 08:56:45;;;;;;;15.80;4.20;;;16.70;44.20;;;;;;4139695;28;20100;-63
2021/04/11 08:59:08;;;;;;;10.83;3.47;;;16.80;45.00;;;;;;4142226;28;20034;-61
2021/04/11 09:01:25;;;;;;;11.27;6.40;;;16.80;43.30;;;;;;4141651;28;20034;-64
2021/04/11 09:04:08;;;;;;;16.40;8.57;;;16.60;44.40;;;;;;4141252;28;20030;-61
2021/04/11 09:06:24;;;;;;;13.70;6.70;;;16.40;45.00;;;;;;4142171;28;20922;-64
2021/04/11 09:08:30;;;;;;;14.80;8.00;;;16.40;45.00;;;;;;4141371;28;20450;-73
2021/04/11 09:11:17;;;;;;;19.60;8.60;;;16.30;45.40;;;;;;4142654;28;20030;-63
2021/04/11 09:13:34;;;;;;;10.03;6.10;;;16.20;45.20;;;;;;4139696;28;20458;-64
2021/04/11 09:16:16;;;;;;;11.50;6.40;;;16.30;44.70;;;;;;4142813;28;20026;-63
2021/04/11 09:18:53;;;;;;;11.63;6.10;;;16.20;44.50;;;;;;4140845;28;20546;-65
2021/04/11 09:21:10;;;;;;;11.57;5.77;;;16.20;44.60;;;;;;4140659;28;20049;-63
2021/04/11 09:23:20;;;;;;;8.57;4.80;;;16.20;44.60;;;;;;4141494;28;20117;-61
2021/04/11 09:25:35;;;;;;;12.73;5.38;;;16.10;44.80;;;;;;4140957;28;20859;-62
2021/04/11 09:28:10;;;;;;;8.47;5.13;;;16.10;44.90;;;;;;4141865;28;20107;-64
2021/04/11 09:30:45;;;;;;;9.30;5.40;;;16.00;44.10;;;;;;4140552;28;20042;-61
2021/04/11 09:33:05;;;;;;;10.43;4.73;;;15.80;44.70;;;;;;4141791;28;20081;-63
2021/04/11 09:35:12;;;;;;;14.10;4.97;;;15.70;45.10;;;;;;4139961;28;20546;-62
2021/04/11 09:37:40;;;;;;;9.77;4.93;;;15.70;45.30;;;;;;4141759;28;20109;-62
2021/04/11 09:40:05;;;;;;;10.07;5.50;;;15.80;44.70;;;;;;4140486;28;20042;-62
2021/04/11 09:42:28;;;;;;;8.10;4.40;;;16.00;45.20;;;;;;4140896;28;20081;-63
2021/04/11 09:44:38;;;;;;;7.57;4.57;;;16.20;44.70;;;;;;4140618;28;20068;-63
2021/04/11 09:47:03;;;;;;;7.55;4.68;;;16.30;44.60;;;;;;4140835;28;20388;-64
2021/04/11 09:49:47;;;;;;;6.97;4.10;;;16.40;44.50;;;;;;4141007;28;20123;-62
2021/04/11 09:52:07;;;;;;;9.63;4.17;;;16.50;44.00;;;;;;4140388;28;20557;-62
2021/04/11 09:54:26;;;;;;;10.05;4.32;;;16.50;43.90;;;;;;4141988;28;20080;-67
2021/04/11 09:56:48;;;;;;;6.72;4.07;;;16.50;44.40;;;;;;4140048;28;20038;-67
2021/04/11 09:58:55;;;;;;;7.20;4.28;;;16.60;43.80;;;;;;4141556;28;20038;-62
2021/04/11 10:01:02;;;;;;;7.30;4.40;;;16.60;44.30;;;;;;4140253;28;20025;-62
2021/04/11 10:03:26;;;;;;;7.47;4.55;;;16.70;44.20;;;;;;4141201;28;20041;-62
2021/04/11 10:05:44;;;;;;;10.65;4.95;;;16.70;43.60;;;;;;4140271;28;20038;-61
2021/04/11 10:08:02;;;;;;;8.20;4.45;;;16.80;43.80;;;;;;4141460;28;20042;-63
2021/04/11 10:10:25;;;;;;;7.57;4.07;;;16.90;43.80;;;;;;4140480;28;20041;-62
2021/04/11 10:12:32;;;;;;;6.45;4.05;;;16.90;43.80;;;;;;4141050;28;20045;-61
2021/04/11 10:14:52;;;;;;;7.10;4.40;;;16.90;43.70;;;;;;4140078;28;20096;-61
2021/04/11 10:16:59;;;;;;;9.02;4.18;;;16.90;43.60;;;;;;4140963;28;20029;-61
2021/04/11 10:19:29;;;;;;;9.40;4.35;;;16.90;43.50;;;;;;4140354;28;20085;-62
2021/04/11 10:21:41;;;;;;;7.35;4.07;;;16.90;42.80;;;;;;4140346;28;20429;-63
2021/04/11 10:24:03;;;;;;;10.55;4.68;;;16.80;43.40;;;;;;4141023;28;20100;-61
2021/04/11 10:26:43;;;;;;;6.70;3.97;;;16.70;43.40;;;;;;4140366;28;20470;-61
2021/04/11 10:28:55;;;;;;;9.60;3.85;;;16.60;43.50;;;;;;4140426;28;20046;-61
2021/04/11 10:31:36;;;;;;;7.45;4.10;;;16.50;43.30;;;;;;4139480;28;20112;-61
2021/04/11 10:33:57;;;;;;;7.07;3.67;;;16.60;43.40;;;;;;4141211;28;20100;-66
2021/04/11 10:36:14;;;;;;;8.50;3.70;;;16.70;43.40;;;;;;4140117;28;20030;-61
2021/04/11 10:38:32;;;;;;;6.40;3.80;;;16.70;43.00;;;;;;4140864;28;20080;-62
2021/04/11 10:40:38;;;;;;;4.32;2.90;;;16.70;43.20;;;;;;4139623;28;20038;-65
2021/04/11 10:43:07;;;;;;;6.88;3.40;;;16.80;42.90;;;;;;4140948;28;20042;-62
2021/04/11 10:45:15;;;;;;;8.02;4.05;;;16.80;42.40;;;;;;4140650;28;20042;-61
2021/04/11 10:47:38;;;;;;;7.05;3.95;;;16.90;43.00;;;;;;4139913;28;20057;-63
2021/04/11 10:50:14;;;;;;;4.60;3.33;;;17.10;42.30;;;;;;4141158;28;20050;-62
2021/04/11 10:52:31;;;;;;;4.72;3.00;;;17.20;41.90;;;;;;4132670;28;20095;-70
2021/04/11 10:54:49;;;;;;;8.98;3.40;;;17.30;41.70;;;;;;4156935;28;20505;-61
2021/04/11 10:57:09;;;;;;;5.25;3.15;;;17.30;41.80;;;;;;4155635;28;20124;-61
2021/04/11 10:59:22;;;;;;;6.72;3.40;;;17.20;41.80;;;;;;4157234;28;20033;-61
2021/04/11 11:01:43;;;;;;;7.95;3.75;;;17.20;42.10;;;;;;4155838;28;21109;-61
2021/04/11 11:04:21;;;;;;;5.28;3.25;;;17.20;42.00;;;;;;4155275;28;20049;-61
2021/04/11 11:06:26;;;;;;;7.20;3.55;;;17.40;42.00;;;;;;4155930;28;20559;-60
2021/04/11 11:08:36;;;;;;;7.43;3.28;;;17.40;42.30;;;;;;4156544;28;20118;-61
2021/04/11 11:10:46;;;;;;;6.28;3.13;;;17.40;42.20;;;;;;4155567;28;20550;-59
2021/04/11 11:13:09;;;;;;;5.75;2.83;;;17.60;42.10;;;;;;4156417;28;20161;-59
2021/04/11 11:15:30;;;;;;;9.93;3.97;;;17.60;41.20;;;;;;4155524;28;20034;-62
2021/04/11 11:17:41;;;;;;;5.65;3.22;;;17.60;41.60;;;;;;4156230;28;20111;-64
2021/04/11 11:20:14;;;;;;;6.35;2.63;;;17.70;41.70;;;;;;4155787;28;20038;-64
2021/04/11 11:22:34;;;;;;;6.05;2.97;;;17.80;41.40;;;;;;4155975;28;20401;-66
2021/04/11 11:25:11;;;;;;;;;;;17.90;42.10;;;;;;4157216;28;20091;-62